Time;durP1;ratioP1;P1;durP2;ratioP2;P2;SDS_P1;SDS_P2;PMS_P1;PMS_P2;Temp;Humidity;BMP_temperature;BMP_pressure;BME280_temperature;BME280_humidity;BME280_pressure;Samples;Min_cycle;Max_cycle;Signal;HPM_P1;HPM_P2
2021/06/20 00:00:39;;;;;;;12.63;11.83;;;;;;;;;;5000761;28;20467;-91
2021/06/20 00:03:05;;;;;;;8.90;8.20;;;21.30;97.60;;;;;;5021974;28;20268;-93
2021/06/20 00:05:40;;;;;;;9.80;8.80;;;21.20;97.70;;;;;;5005330;28;20427;-91
2021/06/20 00:08:11;;;;;;;8.97;7.87;;;22.10;98.80;;;;;;5019739;28;20415;-92
2021/06/20 00:10:39;;;;;;;9.23;8.10;;;22.30;98.70;;;;;;5017423;28;20427;-91
2021/06/20 00:13:08;;;;;;;11.10;8.13;;;23.50;98.90;;;;;;4998730;28;20424;-92
2021/06/20 00:15:36;;;;;;;6.60;6.00;;;20.90;97.80;;;;;;5015653;28;20411;-92
2021/06/20 00:18:04;;;;;;;7.57;5.83;;;21.40;96.40;;;;;;4997054;28;20470;-92
2021/06/20 00:20:33;;;;;;;5.73;5.50;;;21.10;94.90;;;;;;5013887;28;20493;-92
2021/06/20 00:22:59;;;;;;;7.13;6.00;;;21.90;95.80;;;;;;5013784;28;20451;-92
2021/06/20 00:25:25;;;;;;;9.20;5.70;;;23.00;97.30;;;;;;4996724;28;20427;-92
2021/06/20 00:27:52;;;;;;;8.13;6.73;;;22.80;96.30;;;;;;5013926;28;20913;-91
2021/06/20 00:30:20;;;;;;;7.13;6.50;;;21.70;95.90;;;;;;4996779;28;20466;-90
2021/06/20 00:32:48;;;;;;;6.97;6.37;;;21.40;97.20;;;;;;5014108;28;20408;-92
2021/06/20 00:35:14;;;;;;;7.60;7.00;;;22.90;97.50;;;;;;4996430;28;20886;-91
2021/06/20 00:37:42;;;;;;;7.30;6.30;;;22.30;94.90;;;;;;5014120;28;20447;-92
2021/06/20 00:40:09;;;;;;;6.97;6.17;;;20.00;95.10;;;;;;5014123;28;20567;-91
2021/06/20 00:42:35;;;;;;;5.87;5.57;;;21.20;94.60;;;;;;4996736;28;20411;-91
2021/06/20 00:45:02;;;;;;;6.43;5.87;;;21.20;95.20;;;;;;5014341;28;20426;-91
2021/06/20 00:47:27;;;;;;;6.30;5.80;;;21.60;95.10;;;;;;5015958;28;20411;-92
2021/06/20 00:49:53;;;;;;;6.10;5.57;;;;;;;;;;5022919;28;20424;-91
2021/06/20 00:52:20;;;;;;;7.50;6.90;;;21.10;95.00;;;;;;5027720;28;20195;-90
2021/06/20 00:54:51;;;;;;;8.97;6.97;;;22.00;96.80;;;;;;5028937;28;20477;-91
2021/06/20 00:57:20;;;;;;;6.87;6.40;;;21.10;97.20;;;;;;5009240;28;20419;-90
2021/06/20 00:59:47;;;;;;;9.10;6.90;;;23.00;97.40;;;;;;5019855;28;20471;-91
2021/06/20 01:02:14;;;;;;;6.63;6.00;;;23.40;98.40;;;;;;5003308;28;20404;-91
2021/06/20 01:04:44;;;;;;;8.13;7.53;;;21.20;96.50;;;;;;5005555;28;20923;-92
2021/06/20 01:07:20;;;;;;;7.47;6.97;;;21.30;96.50;;;;;;5018129;28;20400;-92
2021/06/20 01:09:47;;;;;;;9.23;7.33;;;21.10;95.80;;;;;;5001295;28;20415;-93
2021/06/20 01:12:14;;;;;;;7.17;6.43;;;23.00;98.20;;;;;;5026659;28;20407;-90
2021/06/20 01:14:41;;;;;;;6.60;6.20;;;22.70;98.00;;;;;;5014255;28;20420;-89
2021/06/20 01:17:11;;;;;;;5.90;5.60;;;23.10;98.10;;;;;;5029864;28;20478;-89
2021/06/20 01:19:37;;;;;;;6.50;6.00;;;20.90;95.70;;;;;;5012409;28;20495;-89
2021/06/20 01:22:28;;;;;;;6.33;5.73;;;22.50;96.70;;;;;;5030135;28;20483;-91
2021/06/20 01:24:59;;;;;;;5.63;5.17;;;21.30;95.70;;;;;;5021812;28;20783;-94
2021/06/20 01:27:59;;;;;;;9.43;4.77;;;22.50;97.00;;;;;;5000842;28;20746;-91
2021/06/20 01:30:29;;;;;;;5.23;4.60;;;21.10;91.80;;;;;;4987509;28;20758;-93
2021/06/20 01:32:56;;;;;;;4.20;4.00;;;22.60;93.10;;;;;;5000129;28;20854;-90
2021/06/20 01:35:23;;;;;;;4.77;4.30;;;23.30;93.90;;;;;;5001225;28;20430;-92
2021/06/20 01:37:49;;;;;;;5.17;4.93;;;21.70;92.60;;;;;;5001846;28;21008;-92
2021/06/20 01:40:16;;;;;;;3.27;2.97;;;22.60;92.30;;;;;;5000471;28;20578;-92
2021/06/20 01:42:43;;;;;;;4.43;4.03;;;21.00;90.30;;;;;;5000709;28;20430;-95
2021/06/20 01:45:09;;;;;;;3.60;3.17;;;23.30;93.30;;;;;;5003034;28;20419;-93
2021/06/20 01:47:36;;;;;;;2.97;2.77;;;21.10;91.20;;;;;;5001136;28;20841;-93
2021/06/20 01:50:07;;;;;;;6.40;3.57;;;21.70;91.50;;;;;;5001724;28;20427;-94
2021/06/20 01:52:33;;;;;;;3.33;3.03;;;21.10;92.50;;;;;;5004087;28;20415;-94
2021/06/20 01:54:59;;;;;;;3.83;3.60;;;22.10;93.90;;;;;;5002860;28;20427;-95
2021/06/20 01:57:30;;;;;;;4.40;4.10;;;23.40;95.10;;;;;;5002625;28;20578;-94
2021/06/20 01:59:58;;;;;;;4.40;4.00;;;23.30;95.00;;;;;;4981607;28;20299;-93
2021/06/20 02:02:24;;;;;;;3.70;3.40;;;21.30;92.80;;;;;;4996956;28;20427;-94
2021/06/20 02:04:52;;;;;;;4.73;4.23;;;22.70;91.60;;;;;;4978868;28;20595;-93
2021/06/20 02:07:18;;;;;;;3.70;3.40;;;23.40;92.60;;;;;;4980435;28;20426;-94
2021/06/20 02:09:44;;;;;;;7.10;3.77;;;23.50;93.40;;;;;;4983564;28;20421;-94
2021/06/20 02:12:14;;;;;;;4.97;4.00;;;23.50;92.70;;;;;;4983237;28;20971;-95
2021/06/20 02:14:41;;;;;;;3.97;3.53;;;23.50;94.80;;;;;;4983352;28;20482;-94
2021/06/20 02:17:28;;;;;;;3.83;3.63;;;19.60;92.00;;;;;;4984230;28;20451;-94
2021/06/20 02:19:56;;;;;;;5.17;3.73;;;21.10;91.50;;;;;;4997944;28;20468;-94
2021/06/20 02:22:22;;;;;;;3.73;3.43;;;22.30;92.20;;;;;;4979976;28;20483;-93
2021/06/20 02:24:48;;;;;;;7.10;4.33;;;22.90;92.20;;;;;;4981274;28;20425;-94
2021/06/20 02:27:15;;;;;;;4.83;4.10;;;21.60;90.30;;;;;;4983946;28;20416;-93
2021/06/20 02:29:42;;;;;;;3.87;3.53;;;23.70;92.30;;;;;;4982087;28;20947;-92
2021/06/20 02:32:09;;;;;;;3.67;3.23;;;22.00;90.30;;;;;;4982630;28;20974;-94
2021/06/20 02:34:36;;;;;;;6.10;3.67;;;23.20;91.40;;;;;;4979870;28;20424;-92
2021/06/20 02:37:02;;;;;;;3.63;3.30;;;21.20;88.00;;;;;;5000949;28;20761;-93
2021/06/20 02:39:28;;;;;;;4.30;3.40;;;21.70;90.30;;;;;;4988224;28;20456;-93
2021/06/20 02:41:54;;;;;;;4.57;4.13;;;22.50;92.20;;;;;;5000722;28;20463;-93
2021/06/20 02:44:20;;;;;;;4.33;3.77;;;22.70;91.10;;;;;;4983269;28;20893;-93
2021/06/20 02:46:46;;;;;;;5.70;4.70;;;21.10;89.40;;;;;;5000679;28;20180;-92
2021/06/20 02:49:12;;;;;;;6.73;4.07;;;22.30;90.90;;;;;;4982755;28;20413;-91
2021/06/20 02:51:41;;;;;;;7.67;4.93;;;;;;;;;;4982323;28;20425;-92
2021/06/20 02:54:06;;;;;;;5.40;3.80;;;21.30;90.00;;;;;;5001086;28;20181;-92
2021/06/20 02:56:32;;;;;;;4.13;3.60;;;;;;;;;;4983808;28;20413;-93
2021/06/20 02:58:58;;;;;;;8.27;4.07;;;21.20;90.30;;;;;;4998970;28;20220;-92
2021/06/20 03:01:23;;;;;;;6.00;3.87;;;21.10;92.30;;;;;;4984735;28;20426;-92
2021/06/20 03:03:49;;;;;;;5.30;4.10;;;;;;;;;;4982746;28;20264;-93
2021/06/20 03:06:15;;;;;;;9.03;4.50;;;21.10;90.50;;;;;;5000305;28;20692;-92
2021/06/20 03:08:45;;;;;;;4.70;4.30;;;21.40;93.00;;;;;;5001073;28;20416;-92
2021/06/20 03:11:19;;;;;;;6.13;4.00;;;21.20;91.00;;;;;;4987175;28;20170;-93
2021/06/20 03:13:46;;;;;;;6.30;4.33;;;21.20;90.90;;;;;;4986723;28;20793;-93
2021/06/20 03:16:12;;;;;;;7.57;4.30;;;21.40;92.50;;;;;;4986624;28;20428;-94
2021/06/20 03:18:38;;;;;;;5.37;4.90;;;;;;;;;;4988561;28;20416;-92
2021/06/20 03:21:04;;;;;;;8.73;3.93;;;21.10;90.60;;;;;;5007968;28;20200;-93
2021/06/20 03:23:32;;;;;;;5.20;4.00;;;21.00;92.90;;;;;;5003575;28;20487;-93
2021/06/20 03:26:01;;;;;;;5.23;4.80;;;23.50;93.50;;;;;;5003552;28;20416;-93
2021/06/20 03:28:27;;;;;;;5.83;4.23;;;23.60;94.90;;;;;;5002030;28;20405;-95
2021/06/20 03:30:53;;;;;;;5.80;4.90;;;23.00;94.10;;;;;;4992280;28;20423;-91
2021/06/20 03:33:19;;;;;;;5.43;4.93;;;;;;;;;;4994078;28;20227;-90
2021/06/20 03:35:44;;;;;;;9.77;4.90;;;21.10;90.50;;;;;;5014571;28;20165;-90
2021/06/20 03:38:10;;;;;;;4.40;4.20;;;;;;;;;;4998253;28;20467;-92
2021/06/20 03:40:36;;;;;;;5.97;5.10;;;21.10;90.80;;;;;;5004505;28;20602;-91
2021/06/20 03:43:02;;;;;;;5.67;5.10;;;;;;;;;;4987584;28;20413;-92
2021/06/20 03:45:32;;;;;;;7.83;4.70;;;21.10;91.50;;;;;;5003421;28;20425;-92
2021/06/20 03:48:01;;;;;;;5.87;5.33;;;23.40;93.50;;;;;;4989174;28;20405;-91
2021/06/20 03:50:28;;;;;;;6.33;5.27;;;22.50;92.20;;;;;;5007345;28;20471;-93
2021/06/20 03:52:54;;;;;;;5.70;5.20;;;20.70;92.40;;;;;;5006069;28;20416;-92
2021/06/20 03:55:21;;;;;;;5.40;4.80;;;23.70;94.60;;;;;;5001722;28;20519;-93
2021/06/20 03:57:47;;;;;;;5.67;4.50;;;21.80;92.90;;;;;;5002485;28;20189;-95
2021/06/20 04:00:16;;;;;;;5.53;5.03;;;21.70;95.20;;;;;;5003548;28;20838;-92
2021/06/20 04:02:45;;;;;;;5.00;4.77;;;21.20;92.10;;;;;;5003148;28;20212;-94
2021/06/20 04:05:15;;;;;;;6.20;4.67;;;22.40;92.60;;;;;;4986352;28;20421;-92
2021/06/20 04:07:44;;;;;;;4.10;3.90;;;21.10;92.90;;;;;;4984615;28;20424;-94
2021/06/20 04:10:10;;;;;;;4.23;3.90;;;20.80;94.30;;;;;;4985092;28;20423;-92
2021/06/20 04:12:39;;;;;;;4.70;4.37;;;20.90;91.40;;;;;;5000992;28;20788;-92
2021/06/20 04:15:08;;;;;;;5.07;4.67;;;20.70;91.80;;;;;;4987377;28;20405;-93
2021/06/20 04:17:35;;;;;;;4.73;4.33;;;20.40;91.70;;;;;;4992981;28;20443;-92
2021/06/20 04:20:02;;;;;;;4.50;4.20;;;21.30;93.40;;;;;;5013603;28;20475;-92
2021/06/20 04:22:28;;;;;;;3.87;3.37;;;20.70;91.50;;;;;;4991254;28;21014;-92
2021/06/20 04:24:54;;;;;;;3.83;3.63;;;23.20;92.70;;;;;;4990245;28;20429;-92
2021/06/20 04:27:29;;;;;;;4.83;3.20;;;21.70;91.50;;;;;;4985926;28;20189;-94
2021/06/20 04:29:57;;;;;;;5.27;3.83;;;21.20;94.10;;;;;;4981622;28;20425;-91
2021/06/20 04:32:22;;;;;;;3.60;3.33;;;21.90;92.70;;;;;;4981177;28;20449;-92
2021/06/20 04:34:48;;;;;;;3.43;3.13;;;;;;;;;;4981936;28;20436;-92
2021/06/20 04:37:14;;;;;;;3.23;3.17;;;20.70;87.80;;;;;;4980703;28;20211;-93
2021/06/20 04:39:40;;;;;;;3.20;3.03;;;21.30;90.20;;;;;;4981900;28;20460;-92
2021/06/20 04:42:08;;;;;;;3.67;3.40;;;23.60;91.60;;;;;;4981022;28;20180;-93
2021/06/20 04:44:43;;;;;;;2.60;2.47;;;21.20;87.30;;;;;;4982429;28;20181;-93
2021/06/20 04:47:18;;;;;;;2.57;2.37;;;22.40;87.10;;;;;;4980649;28;20515;-93
2021/06/20 04:49:44;;;;;;;2.50;2.30;;;23.00;85.90;;;;;;4978203;28;20420;-93
2021/06/20 04:52:11;;;;;;;3.03;2.73;;;21.70;82.80;;;;;;4980095;28;20427;-94
2021/06/20 04:54:49;;;;;;;6.70;2.47;;;23.30;82.70;;;;;;4980483;28;20180;-94
2021/06/20 04:57:27;;;;;;;3.67;2.30;;;22.10;80.70;;;;;;4981248;28;20417;-92
2021/06/20 05:00:00;;;;;;;5.53;3.20;;;22.60;79.10;;;;;;4978103;28;20461;-92
2021/06/20 05:02:28;;;;;;;2.63;2.43;;;21.40;76.20;;;;;;4978948;28;20413;-91
2021/06/20 05:04:54;;;;;;;2.60;2.60;;;25.20;79.00;;;;;;4978214;28;20421;-91
2021/06/20 05:07:20;;;;;;;3.63;3.37;;;25.40;76.70;;;;;;4979017;28;20878;-91
2021/06/20 05:09:47;;;;;;;2.83;2.53;;;22.70;77.80;;;;;;4978367;28;20436;-91
2021/06/20 05:12:14;;;;;;;3.33;3.07;;;22.70;72.80;;;;;;4964029;28;20420;-91
2021/06/20 05:14:44;;;;;;;3.13;2.90;;;23.50;74.90;;;;;;4980850;28;20425;-91
2021/06/20 05:17:15;;;;;;;3.00;2.80;;;21.60;70.20;;;;;;4980642;28;20415;-94
2021/06/20 05:19:41;;;;;;;3.73;2.60;;;25.40;74.60;;;;;;4965234;28;20509;-94
2021/06/20 05:22:08;;;;;;;3.10;2.83;;;25.30;72.80;;;;;;4980410;28;20475;-92
2021/06/20 05:24:34;;;;;;;3.23;2.70;;;26.30;71.30;;;;;;4981482;28;20417;-91
2021/06/20 05:27:00;;;;;;;2.60;2.33;;;25.90;68.30;;;;;;4981186;28;20441;-91
2021/06/20 05:29:28;;;;;;;2.33;2.33;;;;;;;;;;4978898;28;20453;-91
2021/06/20 05:32:03;;;;;;;3.30;3.00;;;24.00;62.50;;;;;;4290023;28;10000258;-93
2021/06/20 05:34:28;;;;;;;3.13;2.90;;;22.20;69.70;;;;;;4977630;28;20486;-92
2021/06/20 05:37:02;;;;;;;2.20;2.17;;;26.20;72.40;;;;;;4978135;28;20891;-90
2021/06/20 05:39:33;;;;;;;3.23;3.03;;;24.10;64.80;;;;;;4978518;28;20213;-92
2021/06/20 05:42:01;;;;;;;3.23;2.47;;;26.30;71.50;;;;;;4979747;28;20418;-93
2021/06/20 05:44:29;;;;;;;2.63;2.63;;;27.10;70.00;;;;;;4980311;28;20433;-92
2021/06/20 05:46:54;;;;;;;2.50;2.40;;;25.60;74.10;;;;;;4978237;28;21064;-93
2021/06/20 05:49:20;;;;;;;3.43;2.90;;;;;;;;;;4977340;28;20512;-92
2021/06/20 05:51:49;;;;;;;2.87;2.57;;;23.90;63.00;;;;;;4978984;28;20177;-91
2021/06/20 05:54:15;;;;;;;2.70;2.50;;;26.60;75.50;;;;;;4977933;28;20418;-94
2021/06/20 05:56:41;;;;;;;2.70;2.60;;;;;;;;;;4977997;28;20444;-95
2021/06/20 05:59:06;;;;;;;4.03;3.20;;;23.90;62.40;;;;;;4977591;28;20209;-92
2021/06/20 06:01:33;;;;;;;3.23;2.93;;;24.70;70.80;;;;;;4977292;28;20437;-93
2021/06/20 06:03:59;;;;;;;2.83;2.73;;;25.80;62.90;;;;;;4978767;28;20174;-93
2021/06/20 06:06:25;;;;;;;2.03;2.03;;;;;;;;;;4976568;28;20594;-92
2021/06/20 06:08:51;;;;;;;2.40;2.40;;;24.60;58.70;;;;;;4978177;28;20179;-94
2021/06/20 06:11:27;;;;;;;3.10;3.00;;;27.50;75.00;;;;;;4980000;28;20429;-93
2021/06/20 06:13:55;;;;;;;3.40;3.13;;;23.30;58.50;;;;;;4962171;28;20185;-92
2021/06/20 06:16:23;;;;;;;2.93;2.80;;;26.50;66.50;;;;;;4980177;28;20433;-93
2021/06/20 06:18:52;;;;;;;3.13;2.93;;;24.40;59.80;;;;;;4979448;28;20916;-93
2021/06/20 06:21:18;;;;;;;4.17;3.77;;;27.40;62.30;;;;;;4979316;28;20961;-94
2021/06/20 06:23:44;;;;;;;3.20;3.00;;;;;;;;;;4994737;28;20453;-94
2021/06/20 06:26:13;;;;;;;3.23;3.03;;;24.40;59.20;;;;;;4998295;28;20181;-94
2021/06/20 06:28:39;;;;;;;4.60;2.80;;;24.30;66.80;;;;;;4979354;28;20479;-93
2021/06/20 06:31:07;;;;;;;3.90;3.80;;;23.90;59.60;;;;;;4983395;28;20928;-93
2021/06/20 06:33:33;;;;;;;3.10;3.00;;;25.00;70.40;;;;;;4982851;28;20187;-91
2021/06/20 06:36:08;;;;;;;3.33;3.23;;;26.40;74.80;;;;;;5000471;28;20412;-95
2021/06/20 06:38:34;;;;;;;3.40;3.30;;;24.40;67.60;;;;;;4981112;28;20464;-92
2021/06/20 06:41:04;;;;;;;3.30;3.30;;;26.20;71.50;;;;;;4979449;28;20488;-92
2021/06/20 06:43:30;;;;;;;3.33;3.20;;;21.00;65.30;;;;;;5016142;28;20170;-93
2021/06/20 06:45:59;;;;;;;3.83;3.50;;;22.90;62.00;;;;;;4996998;28;20428;-93
2021/06/20 06:48:27;;;;;;;3.40;3.20;;;25.00;65.70;;;;;;4999223;28;20546;-93
2021/06/20 06:50:56;;;;;;;3.00;2.80;;;21.50;64.90;;;;;;4997474;28;21014;-93
2021/06/20 06:53:22;;;;;;;3.30;3.20;;;23.20;64.30;;;;;;4997970;28;20428;-92
2021/06/20 06:55:50;;;;;;;3.33;3.13;;;23.20;66.70;;;;;;4998119;28;20451;-92
2021/06/20 06:58:19;;;;;;;2.50;2.50;;;22.90;62.40;;;;;;4998805;28;20710;-91
2021/06/20 07:00:46;;;;;;;3.30;3.20;;;25.90;68.90;;;;;;4997876;28;20463;-92
2021/06/20 07:03:11;;;;;;;3.33;3.00;;;24.40;61.50;;;;;;4998664;28;20409;-91
2021/06/20 07:05:38;;;;;;;3.23;3.13;;;;;;;;;;4997806;28;20443;-91
2021/06/20 07:08:06;;;;;;;3.00;3.00;;;24.90;56.80;;;;;;4998720;28;20645;-92
2021/06/20 07:10:32;;;;;;;2.80;2.80;;;26.80;60.70;;;;;;4999184;28;20519;-92
2021/06/20 07:12:59;;;;;;;2.83;2.83;;;28.00;59.10;;;;;;5019070;28;20420;-92
2021/06/20 07:15:27;;;;;;;3.13;2.80;;;24.20;58.40;;;;;;5010482;28;20983;-95
2021/06/20 07:17:59;;;;;;;3.00;3.00;;;26.00;56.20;;;;;;5011226;28;20472;-92
2021/06/20 07:20:31;;;;;;;2.67;2.67;;;26.10;58.90;;;;;;4989650;28;20476;-93
2021/06/20 07:23:02;;;;;;;2.97;2.87;;;26.90;56.00;;;;;;5003563;28;20465;-93
2021/06/20 07:25:33;;;;;;;4.93;2.80;;;27.10;55.20;;;;;;5004836;28;20424;-93
2021/06/20 07:28:02;;;;;;;3.00;2.80;;;26.50;53.40;;;;;;5002688;28;20416;-92
2021/06/20 07:30:31;;;;;;;2.77;2.77;;;27.00;53.20;;;;;;5003396;28;20491;-93
2021/06/20 07:33:00;;;;;;;2.70;2.70;;;27.70;51.80;;;;;;5002493;28;20409;-94
2021/06/20 07:35:26;;;;;;;2.93;2.43;;;29.80;52.80;;;;;;5005308;28;20787;-93
2021/06/20 07:37:54;;;;;;;2.63;2.47;;;29.20;54.60;;;;;;5015454;28;20451;-91
2021/06/20 07:40:20;;;;;;;2.53;2.20;;;28.90;51.30;;;;;;5013910;28;20543;-93
2021/06/20 07:42:46;;;;;;;3.50;2.13;;;29.30;51.90;;;;;;5023055;28;20421;-93
2021/06/20 07:45:14;;;;;;;2.77;2.77;;;27.70;50.10;;;;;;5005784;28;20433;-93
2021/06/20 07:47:41;;;;;;;2.03;2.00;;;28.10;49.30;;;;;;5005059;28;20249;-91
2021/06/20 07:50:10;;;;;;;3.73;2.13;;;30.50;50.00;;;;;;5004914;28;20421;-94
2021/06/20 07:52:44;;;;;;;1.80;1.80;;;31.20;48.10;;;;;;5006356;28;20431;-90
2021/06/20 07:55:20;;;;;;;2.50;2.33;;;28.80;49.20;;;;;;5004914;28;20428;-90
2021/06/20 07:57:49;;;;;;;1.80;1.80;;;27.80;45.30;;;;;;5007157;28;20893;-93
2021/06/20 08:00:19;;;;;;;1.73;1.73;;;32.10;50.80;;;;;;5005931;28;20504;-93
2021/06/20 08:02:51;;;;;;;2.30;2.10;;;29.80;48.00;;;;;;5003736;28;20412;-92
2021/06/20 08:05:17;;;;;;;3.10;2.90;;;28.00;46.60;;;;;;5003538;28;20424;-93
2021/06/20 08:07:44;;;;;;;2.10;2.10;;;30.60;49.90;;;;;;5005783;28;20413;-92
2021/06/20 08:10:28;;;;;;;2.20;2.10;;;31.30;52.30;;;;;;5005135;28;20424;-93
2021/06/20 08:12:55;;;;;;;2.60;2.50;;;28.00;48.50;;;;;;5007095;28;20471;-93
2021/06/20 08:15:23;;;;;;;1.83;1.83;;;28.10;48.40;;;;;;5003842;28;20429;-92
2021/06/20 08:17:49;;;;;;;2.10;2.10;;;31.80;52.60;;;;;;5006981;28;20421;-93
2021/06/20 08:20:16;;;;;;;2.37;2.27;;;;;;;;;;5004981;28;20475;-92
2021/06/20 08:22:42;;;;;;;2.03;2.00;;;28.90;46.10;;;;;;5020524;28;20708;-91
2021/06/20 08:25:14;;;;;;;2.00;1.90;;;30.00;48.00;;;;;;5002323;28;20492;-91
2021/06/20 08:27:41;;;;;;;2.27;2.17;;;30.20;48.00;;;;;;5001169;28;20180;-92
2021/06/20 08:30:11;;;;;;;2.47;2.22;;;29.10;48.30;;;;;;4655763;28;9999990;-92
2021/06/20 08:32:37;;;;;;;1.90;1.90;;;27.80;47.40;;;;;;4986656;28;20193;-91
2021/06/20 08:35:10;;;;;;;7.23;2.33;;;27.70;48.60;;;;;;5005707;28;20437;-90
2021/06/20 08:37:36;;;;;;;2.13;2.03;;;;;;;;;;5006921;28;20416;-91
2021/06/20 08:40:08;;;;;;;2.27;2.20;;;24.50;48.20;;;;;;4992037;28;20468;-91
2021/06/20 08:42:35;;;;;;;1.90;1.90;;;26.90;50.60;;;;;;5006790;28;20424;-91
2021/06/20 08:45:01;;;;;;;2.00;2.00;;;;;;;;;;5007647;28;20438;-91
2021/06/20 08:47:56;;;;;;;2.37;2.17;;;26.80;48.40;;;;;;5006455;28;20176;-91
2021/06/20 08:50:26;;;;;;;2.20;2.20;;;27.80;46.30;;;;;;5009430;28;20416;-92
2021/06/20 08:52:53;;;;;;;1.70;1.70;;;27.20;46.90;;;;;;5007614;28;20554;-91
2021/06/20 08:55:23;;;;;;;3.40;1.57;;;28.40;44.40;;;;;;5005395;28;20423;-90
2021/06/20 08:57:51;;;;;;;1.70;1.70;;;29.80;44.10;;;;;;5004293;28;20430;-90
2021/06/20 09:00:20;;;;;;;2.20;2.10;;;28.80;47.40;;;;;;5005030;28;20468;-91
2021/06/20 09:02:59;;;;;;;2.03;1.80;;;28.40;45.00;;;;;;5004485;28;20424;-92
2021/06/20 09:05:25;;;;;;;2.00;2.00;;;29.40;44.30;;;;;;5005198;28;20428;-92
2021/06/20 09:07:56;;;;;;;1.43;1.43;;;29.50;44.00;;;;;;5003222;28;20416;-92
2021/06/20 09:10:26;;;;;;;4.47;2.20;;;30.60;43.50;;;;;;5006136;28;20802;-92
2021/06/20 09:12:59;;;;;;;1.70;1.70;;;31.50;43.10;;;;;;5004607;28;20408;-91
2021/06/20 09:15:30;;;;;;;1.90;1.90;;;29.90;40.60;;;;;;5009768;28;20429;-93
2021/06/20 09:18:12;;;;;;;1.80;1.73;;;29.00;41.20;;;;;;5006466;28;20435;-93
2021/06/20 09:20:43;;;;;;;1.70;1.60;;;29.90;41.30;;;;;;5007573;28;20483;-92
2021/06/20 09:23:13;;;;;;;1.80;1.70;;;29.80;42.70;;;;;;5008024;28;20465;-91
2021/06/20 09:25:41;;;;;;;1.73;1.70;;;30.40;40.80;;;;;;5008548;28;20431;-88
2021/06/20 09:28:10;;;;;;;2.53;1.70;;;32.20;43.00;;;;;;5009500;28;20475;-92
2021/06/20 09:30:51;;;;;;;1.87;1.70;;;30.60;42.90;;;;;;5011571;28;20496;-90
2021/06/20 09:33:17;;;;;;;1.30;1.30;;;;;;;;;;5014776;28;20419;-90
2021/06/20 09:35:47;;;;;;;1.70;1.60;;;31.10;38.70;;;;;;5015297;28;20480;-90
2021/06/20 09:38:26;;;;;;;2.23;1.50;;;30.30;43.20;;;;;;5032103;28;20431;-90
2021/06/20 09:41:07;;;;;;;1.43;1.33;;;30.30;39.70;;;;;;5014998;28;20491;-91
2021/06/20 09:43:39;;;;;;;1.23;1.23;;;30.90;40.40;;;;;;5014588;28;20430;-90
2021/06/20 09:46:14;;;;;;;2.10;1.77;;;31.00;38.60;;;;;;5014552;28;20475;-91
2021/06/20 09:48:46;;;;;;;2.50;1.67;;;30.00;38.80;;;;;;5015548;28;20412;-91
2021/06/20 09:51:36;;;;;;;1.70;1.70;;;34.80;40.00;;;;;;5014314;28;20424;-89
2021/06/20 09:54:07;;;;;;;1.60;1.60;;;32.30;35.20;;;;;;5015192;28;20424;-90
2021/06/20 09:56:36;;;;;;;2.23;1.33;;;31.90;37.90;;;;;;5015997;28;20420;-90
2021/06/20 09:59:04;;;;;;;1.30;1.30;;;33.90;39.40;;;;;;5016373;28;20571;-89
2021/06/20 10:01:38;;;;;;;1.40;1.40;;;32.70;37.90;;;;;;5014408;28;20798;-90
2021/06/20 10:04:07;;;;;;;2.23;1.30;;;28.90;33.60;;;;;;5013885;28;20432;-91
2021/06/20 10:06:33;;;;;;;1.83;1.73;;;34.50;37.50;;;;;;5012154;28;20429;-93
2021/06/20 10:09:05;;;;;;;1.43;1.43;;;31.90;37.90;;;;;;5011794;28;20783;-91
2021/06/20 10:11:39;;;;;;;1.53;1.53;;;33.20;39.60;;;;;;5010382;28;20165;-93
2021/06/20 10:14:11;;;;;;;1.77;1.67;;;32.70;37.00;;;;;;5011357;28;20424;-93
2021/06/20 10:16:49;;;;;;;1.80;1.80;;;31.50;38.10;;;;;;5007621;28;20956;-95
2021/06/20 10:19:26;;;;;;;1.60;1.50;;;32.70;37.10;;;;;;5007860;28;20535;-95
2021/06/20 10:22:08;;;;;;;2.37;1.60;;;32.20;36.90;;;;;;5011394;28;20420;-93
2021/06/20 10:25:22;;;;;;;2.27;1.40;;;32.70;35.30;;;;;;5026578;28;20428;-96
2021/06/20 10:28:05;;;;;;;1.67;1.57;;;32.80;34.70;;;;;;5025729;28;20865;-94
2021/06/20 10:30:37;;;;;;;1.90;1.90;;;32.10;34.00;;;;;;5001251;28;20428;-95
2021/06/20 10:33:09;;;;;;;1.63;1.53;;;36.00;36.40;;;;;;5005012;28;20911;-93
2021/06/20 10:35:36;;;;;;;1.50;1.50;;;36.50;35.00;;;;;;5006070;28;20411;-93
2021/06/20 10:38:02;;;;;;;1.53;1.40;;;36.20;34.60;;;;;;5005174;28;20462;-93
2021/06/20 10:40:42;;;;;;;2.20;1.37;;;34.50;32.50;;;;;;5020495;28;20459;-92
2021/06/20 10:43:19;;;;;;;1.20;1.20;;;35.50;33.00;;;;;;5007554;28;20416;-93
2021/06/20 10:45:51;;;;;;;1.40;1.40;;;34.80;32.40;;;;;;5006774;28;20450;-91
2021/06/20 10:48:18;;;;;;;1.30;1.30;;;33.70;32.90;;;;;;4987510;28;20420;-93
2021/06/20 10:50:50;;;;;;;1.63;1.43;;;34.10;34.80;;;;;;5000216;28;20408;-93
2021/06/20 10:53:16;;;;;;;1.20;1.20;;;34.50;32.70;;;;;;5013194;28;20434;-91
2021/06/20 10:55:45;;;;;;;1.30;1.30;;;32.70;31.00;;;;;;4995703;28;20417;-93
2021/06/20 10:58:24;;;;;;;2.10;1.40;;;36.10;33.30;;;;;;4984475;28;20421;-91
2021/06/20 11:00:52;;;;;;;4.00;3.80;;;33.00;32.80;;;;;;5001963;28;20555;-91
2021/06/20 11:03:31;;;;;;;1.57;1.57;;;31.60;35.00;;;;;;4986685;28;20425;-93
2021/06/20 11:06:06;;;;;;;2.63;1.40;;;32.20;37.20;;;;;;4988534;28;20879;-91
2021/06/20 11:09:01;;;;;;;3.97;3.73;;;33.00;34.50;;;;;;5005975;28;20393;-94
2021/06/20 11:11:32;;;;;;;1.27;1.27;;;31.50;34.60;;;;;;4996666;28;20433;-93
2021/06/20 11:13:58;;;;;;;2.60;1.50;;;;;;;;;;4995616;28;20460;-93
2021/06/20 11:16:31;;;;;;;1.93;1.83;;;33.10;33.00;;;;;;5012309;28;20413;-94
2021/06/20 11:19:15;;;;;;;1.93;1.80;;;34.90;34.00;;;;;;4985973;28;20424;-92
2021/06/20 11:21:56;;;;;;;1.40;1.40;;;32.40;33.30;;;;;;5012420;28;20420;-93
2021/06/20 11:24:43;;;;;;;1.50;1.33;;;32.40;33.60;;;;;;5004011;28;20428;-95
2021/06/20 11:27:20;;;;;;;1.23;1.23;;;31.40;35.40;;;;;;5020551;28;20428;-93
2021/06/20 11:30:19;;;;;;;1.50;1.50;;;33.60;33.70;;;;;;5006560;28;20448;-93
2021/06/20 11:32:54;;;;;;;1.47;1.47;;;32.80;33.80;;;;;;5023286;28;20421;-93
2021/06/20 11:35:20;;;;;;;1.40;1.30;;;35.00;36.80;;;;;;4990349;28;20484;-92
2021/06/20 11:38:03;;;;;;;1.60;1.60;;;33.10;36.30;;;;;;4987890;28;20428;-92
2021/06/20 11:40:33;;;;;;;2.00;2.00;;;34.70;35.00;;;;;;5006146;28;20468;-94
2021/06/20 11:43:02;;;;;;;2.27;2.17;;;34.00;33.20;;;;;;5005965;28;20424;-93
2021/06/20 11:45:39;;;;;;;18.73;11.93;;;34.50;37.10;;;;;;4990262;28;20487;-93
2021/06/20 11:48:06;;;;;;;1.90;1.80;;;36.00;35.30;;;;;;4993128;28;20431;-93
2021/06/20 11:50:42;;;;;;;2.17;2.17;;;34.70;35.40;;;;;;4993540;28;20401;-92
2021/06/20 11:53:09;;;;;;;2.23;2.13;;;35.00;33.10;;;;;;5006780;28;20412;-92
2021/06/20 11:55:58;;;;;;;2.43;2.43;;;36.20;32.40;;;;;;4991745;28;20419;-90
2021/06/20 11:58:35;;;;;;;1.80;1.80;;;34.50;32.90;;;;;;4992114;28;20421;-94
2021/06/20 12:01:08;;;;;;;2.10;2.00;;;38.20;33.10;;;;;;4990000;28;20506;-91
2021/06/20 12:03:40;;;;;;;2.10;2.10;;;36.00;31.60;;;;;;5007563;28;20450;-93
2021/06/20 12:06:38;;;;;;;2.03;2.03;;;38.20;33.30;;;;;;5009447;28;20424;-92
2021/06/20 12:09:08;;;;;;;1.73;1.73;;;33.80;29.00;;;;;;5006973;28;20420;-91
2021/06/20 12:11:37;;;;;;;1.47;1.47;;;37.40;30.70;;;;;;5009558;28;20824;-90
2021/06/20 12:14:07;;;;;;;2.63;2.13;;;37.90;31.50;;;;;;5005911;28;20475;-93
2021/06/20 12:16:52;;;;;;;1.63;1.63;;;39.80;31.60;;;;;;5008100;28;20423;-92
2021/06/20 12:19:21;;;;;;;1.50;1.40;;;40.20;31.10;;;;;;5010251;28;20463;-94
2021/06/20 12:22:35;;;;;;;;;;;;;;;;;;;;;
2021/06/20 12:25:06;;;;;;;3.60;3.00;;;39.70;29.90;;;;;;5017110;28;20417;-92
2021/06/20 12:27:43;;;;;;;2.00;1.60;;;36.80;30.40;;;;;;4992081;28;20433;-93
2021/06/20 12:30:24;;;;;;;2.00;1.40;;;36.30;31.70;;;;;;5003784;28;20425;-89
2021/06/20 12:33:33;;;;;;;1.80;1.80;;;33.80;31.30;;;;;;4984464;28;20421;-91
2021/06/20 12:36:04;;;;;;;2.77;1.90;;;34.40;33.70;;;;;;4983680;28;20425;-92
2021/06/20 12:38:55;;;;;;;1.40;1.40;;;34.10;33.60;;;;;;4984942;28;20413;-96
2021/06/20 12:41:37;;;;;;;1.50;1.50;;;35.10;31.00;;;;;;4987851;28;20472;-93
2021/06/20 12:44:06;;;;;;;1.70;1.60;;;37.30;30.40;;;;;;4988369;28;20413;-89
2021/06/20 12:46:53;;;;;;;1.97;1.80;;;40.00;32.40;;;;;;4989803;28;20422;-89
2021/06/20 12:49:41;;;;;;;2.07;1.90;;;37.50;29.70;;;;;;4994193;28;20404;-92
2021/06/20 12:52:08;;;;;;;2.37;2.20;;;35.60;29.90;;;;;;4992446;28;20429;-91
2021/06/20 12:54:57;;;;;;;1.90;1.90;;;36.10;31.30;;;;;;5009301;28;20433;-91
2021/06/20 12:57:48;;;;;;;1.90;1.80;;;36.40;33.50;;;;;;5000457;28;21006;-90
2021/06/20 13:00:25;;;;;;;1.60;1.60;;;35.70;34.10;;;;;;4990948;28;20551;-92
2021/06/20 13:03:07;;;;;;;1.70;1.70;;;34.00;42.40;;;;;;4631362;28;10001043;-90
2021/06/20 13:05:51;;;;;;;2.00;1.90;;;33.50;36.40;;;;;;4987742;28;21017;-89
2021/06/20 13:08:17;;;;;;;3.13;3.00;;;33.90;32.60;;;;;;4975284;28;20425;-92
2021/06/20 13:10:45;;;;;;;1.80;1.80;;;34.60;39.10;;;;;;4969360;28;20422;-94
2021/06/20 13:13:18;;;;;;;2.10;2.00;;;33.60;34.40;;;;;;4966326;28;20178;-92